sensor_id;sensor_type;location;lat;lon;timestamp;temperature;humidity
8248;DHT22;4164;49.844;8.830;2022-08-19T00:00:12;20.40;99.90
8248;DHT22;4164;49.844;8.830;2022-08-19T00:02:39;20.30;99.90
8248;DHT22;4164;49.844;8.830;2022-08-19T00:05:05;20.30;99.90
8248;DHT22;4164;49.844;8.830;2022-08-19T00:07:31;20.60;99.90
8248;DHT22;4164;49.844;8.830;2022-08-19T00:09:56;20.60;99.90
8248;DHT22;4164;49.844;8.830;2022-08-19T00:12:22;20.50;99.90
8248;DHT22;4164;49.844;8.830;2022-08-19T00:14:47;20.60;99.90
8248;DHT22;4164;49.844;8.830;2022-08-19T00:17:13;20.60;99.90
8248;DHT22;4164;49.844;8.830;2022-08-19T00:19:39;20.60;99.90
8248;DHT22;4164;49.844;8.830;2022-08-19T00:22:06;20.70;99.90
8248;DHT22;4164;49.844;8.830;2022-08-19T00:24:34;20.60;99.90
8248;DHT22;4164;49.844;8.830;2022-08-19T00:27:00;20.80;99.90
8248;DHT22;4164;49.844;8.830;2022-08-19T00:29:27;20.60;99.90
8248;DHT22;4164;49.844;8.830;2022-08-19T00:31:53;20.50;99.90
8248;DHT22;4164;49.844;8.830;2022-08-19T00:34:21;20.50;99.90
8248;DHT22;4164;49.844;8.830;2022-08-19T00:36:47;20.40;99.90
8248;DHT22;4164;49.844;8.830;2022-08-19T00:39:14;20.40;99.90
8248;DHT22;4164;49.844;8.830;2022-08-19T00:41:41;20.40;99.90
8248;DHT22;4164;49.844;8.830;2022-08-19T00:44:08;20.40;99.90
8248;DHT22;4164;49.844;8.830;2022-08-19T00:46:36;20.40;99.90
8248;DHT22;4164;49.844;8.830;2022-08-19T00:49:10;20.40;99.90
8248;DHT22;4164;49.844;8.830;2022-08-19T00:51:40;20.40;99.90
8248;DHT22;4164;49.844;8.830;2022-08-19T00:54:06;20.40;99.90
8248;DHT22;4164;49.844;8.830;2022-08-19T00:56:32;20.40;99.90
8248;DHT22;4164;49.844;8.830;2022-08-19T00:58:59;20.40;99.90
8248;DHT22;4164;49.844;8.830;2022-08-19T01:01:27;20.40;99.90
8248;DHT22;4164;49.844;8.830;2022-08-19T01:03:52;20.40;99.90
8248;DHT22;4164;49.844;8.830;2022-08-19T01:06:18;20.40;99.90
8248;DHT22;4164;49.844;8.830;2022-08-19T01:08:44;20.40;99.90
8248;DHT22;4164;49.844;8.830;2022-08-19T01:11:11;20.50;99.90
8248;DHT22;4164;49.844;8.830;2022-08-19T01:13:37;20.60;99.90
8248;DHT22;4164;49.844;8.830;2022-08-19T01:16:09;20.60;99.90
8248;DHT22;4164;49.844;8.830;2022-08-19T01:18:39;20.60;99.90
8248;DHT22;4164;49.844;8.830;2022-08-19T01:21:16;20.60;99.90
8248;DHT22;4164;49.844;8.830;2022-08-19T01:23:44;20.60;99.90
8248;DHT22;4164;49.844;8.830;2022-08-19T01:26:17;20.60;99.90
8248;DHT22;4164;49.844;8.830;2022-08-19T01:28:44;20.50;99.90
8248;DHT22;4164;49.844;8.830;2022-08-19T01:31:14;20.40;99.90
8248;DHT22;4164;49.844;8.830;2022-08-19T01:33:40;20.40;99.90
8248;DHT22;4164;49.844;8.830;2022-08-19T01:36:13;20.30;99.90
8248;DHT22;4164;49.844;8.830;2022-08-19T01:38:41;20.30;99.90
8248;DHT22;4164;49.844;8.830;2022-08-19T01:41:10;20.30;99.90
8248;DHT22;4164;49.844;8.830;2022-08-19T01:43:36;20.30;99.90
8248;DHT22;4164;49.844;8.830;2022-08-19T01:46:03;20.30;99.90
8248;DHT22;4164;49.844;8.830;2022-08-19T01:48:34;20.20;99.90
8248;DHT22;4164;49.844;8.830;2022-08-19T01:50:59;20.30;99.90
8248;DHT22;4164;49.844;8.830;2022-08-19T01:53:25;20.20;99.90
8248;DHT22;4164;49.844;8.830;2022-08-19T01:55:50;20.30;99.90
8248;DHT22;4164;49.844;8.830;2022-08-19T01:58:19;20.30;99.90
8248;DHT22;4164;49.844;8.830;2022-08-19T02:00:46;20.30;99.90
8248;DHT22;4164;49.844;8.830;2022-08-19T02:03:12;20.40;99.90
8248;DHT22;4164;49.844;8.830;2022-08-19T02:05:39;20.50;99.90
8248;DHT22;4164;49.844;8.830;2022-08-19T02:08:05;20.50;99.90
8248;DHT22;4164;49.844;8.830;2022-08-19T02:10:31;20.50;99.90
8248;DHT22;4164;49.844;8.830;2022-08-19T02:12:57;20.60;99.90
8248;DHT22;4164;49.844;8.830;2022-08-19T02:15:23;20.70;99.90
8248;DHT22;4164;49.844;8.830;2022-08-19T02:17:49;20.70;99.90
8248;DHT22;4164;49.844;8.830;2022-08-19T02:20:15;20.70;99.90
8248;DHT22;4164;49.844;8.830;2022-08-19T02:22:42;20.60;99.90
8248;DHT22;4164;49.844;8.830;2022-08-19T02:25:13;20.60;99.90
8248;DHT22;4164;49.844;8.830;2022-08-19T02:27:39;20.60;99.90
8248;DHT22;4164;49.844;8.830;2022-08-19T02:30:07;20.60;99.90
8248;DHT22;4164;49.844;8.830;2022-08-19T02:32:33;20.70;99.90
8248;DHT22;4164;49.844;8.830;2022-08-19T02:34:59;20.60;99.90
8248;DHT22;4164;49.844;8.830;2022-08-19T02:37:24;20.70;99.90
8248;DHT22;4164;49.844;8.830;2022-08-19T02:40:09;20.70;99.90
8248;DHT22;4164;49.844;8.830;2022-08-19T02:42:34;20.60;99.90
8248;DHT22;4164;49.844;8.830;2022-08-19T02:45:00;20.60;99.90
8248;DHT22;4164;49.844;8.830;2022-08-19T02:47:25;20.50;99.90
8248;DHT22;4164;49.844;8.830;2022-08-19T02:49:51;20.50;99.90
8248;DHT22;4164;49.844;8.830;2022-08-19T02:52:16;20.50;99.90
8248;DHT22;4164;49.844;8.830;2022-08-19T02:54:42;20.50;99.90
8248;DHT22;4164;49.844;8.830;2022-08-19T02:57:09;20.40;99.90
8248;DHT22;4164;49.844;8.830;2022-08-19T02:59:34;20.20;99.90
8248;DHT22;4164;49.844;8.830;2022-08-19T03:02:00;20.10;99.90
8248;DHT22;4164;49.844;8.830;2022-08-19T03:04:25;19.90;99.90
8248;DHT22;4164;49.844;8.830;2022-08-19T03:06:51;19.80;99.90
8248;DHT22;4164;49.844;8.830;2022-08-19T03:09:18;19.80;99.90
8248;DHT22;4164;49.844;8.830;2022-08-19T03:11:45;19.70;99.90
8248;DHT22;4164;49.844;8.830;2022-08-19T03:14:11;19.60;99.90
8248;DHT22;4164;49.844;8.830;2022-08-19T03:16:46;19.60;99.90
8248;DHT22;4164;49.844;8.830;2022-08-19T03:19:13;19.60;99.90
8248;DHT22;4164;49.844;8.830;2022-08-19T03:21:39;19.60;99.90
8248;DHT22;4164;49.844;8.830;2022-08-19T03:24:07;19.60;99.90
8248;DHT22;4164;49.844;8.830;2022-08-19T03:26:33;19.50;99.90
8248;DHT22;4164;49.844;8.830;2022-08-19T03:29:04;19.40;99.90
8248;DHT22;4164;49.844;8.830;2022-08-19T03:31:30;19.40;99.90
8248;DHT22;4164;49.844;8.830;2022-08-19T03:33:56;19.40;99.90
8248;DHT22;4164;49.844;8.830;2022-08-19T03:36:24;19.40;99.90
8248;DHT22;4164;49.844;8.830;2022-08-19T03:38:52;19.40;99.90
8248;DHT22;4164;49.844;8.830;2022-08-19T03:41:22;19.30;99.90
8248;DHT22;4164;49.844;8.830;2022-08-19T03:43:48;19.40;99.90
8248;DHT22;4164;49.844;8.830;2022-08-19T03:46:17;19.40;99.90
8248;DHT22;4164;49.844;8.830;2022-08-19T03:48:46;19.40;99.90
8248;DHT22;4164;49.844;8.830;2022-08-19T03:53:48;19.40;99.90
8248;DHT22;4164;49.844;8.830;2022-08-19T03:56:14;19.40;99.90
8248;DHT22;4164;49.844;8.830;2022-08-19T03:58:41;19.40;99.90
8248;DHT22;4164;49.844;8.830;2022-08-19T04:01:11;19.40;99.90
8248;DHT22;4164;49.844;8.830;2022-08-19T04:03:38;19.30;99.90
8248;DHT22;4164;49.844;8.830;2022-08-19T04:06:19;19.30;99.90
8248;DHT22;4164;49.844;8.830;2022-08-19T04:08:48;19.40;99.90
8248;DHT22;4164;49.844;8.830;2022-08-19T04:11:17;19.40;99.90
8248;DHT22;4164;49.844;8.830;2022-08-19T04:13:43;19.50;99.90
8248;DHT22;4164;49.844;8.830;2022-08-19T04:16:10;19.40;99.90
8248;DHT22;4164;49.844;8.830;2022-08-19T04:18:37;19.40;99.90
8248;DHT22;4164;49.844;8.830;2022-08-19T04:21:04;19.50;99.90
8248;DHT22;4164;49.844;8.830;2022-08-19T04:23:30;19.60;99.90
8248;DHT22;4164;49.844;8.830;2022-08-19T04:25:55;19.60;99.90
8248;DHT22;4164;49.844;8.830;2022-08-19T04:28:22;19.60;99.90
8248;DHT22;4164;49.844;8.830;2022-08-19T04:30:50;19.70;99.90
8248;DHT22;4164;49.844;8.830;2022-08-19T04:33:17;19.70;99.90
8248;DHT22;4164;49.844;8.830;2022-08-19T04:35:46;19.70;99.90
8248;DHT22;4164;49.844;8.830;2022-08-19T04:38:15;19.70;99.90
8248;DHT22;4164;49.844;8.830;2022-08-19T04:40:42;19.60;99.90
8248;DHT22;4164;49.844;8.830;2022-08-19T04:43:27;19.70;99.90
8248;DHT22;4164;49.844;8.830;2022-08-19T04:45:53;19.50;99.90
8248;DHT22;4164;49.844;8.830;2022-08-19T04:48:19;19.40;99.90
8248;DHT22;4164;49.844;8.830;2022-08-19T04:50:54;19.40;99.90
8248;DHT22;4164;49.844;8.830;2022-08-19T04:53:24;19.40;99.90
8248;DHT22;4164;49.844;8.830;2022-08-19T04:55:50;19.50;99.90
8248;DHT22;4164;49.844;8.830;2022-08-19T04:58:16;19.70;99.90
8248;DHT22;4164;49.844;8.830;2022-08-19T05:00:42;19.70;99.90
8248;DHT22;4164;49.844;8.830;2022-08-19T05:03:09;19.80;99.90
8248;DHT22;4164;49.844;8.830;2022-08-19T05:05:41;19.90;99.90
8248;DHT22;4164;49.844;8.830;2022-08-19T05:08:07;20.00;99.90
8248;DHT22;4164;49.844;8.830;2022-08-19T05:10:35;20.00;99.90
8248;DHT22;4164;49.844;8.830;2022-08-19T05:13:01;20.20;99.90
8248;DHT22;4164;49.844;8.830;2022-08-19T05:15:27;20.10;99.90
8248;DHT22;4164;49.844;8.830;2022-08-19T05:17:52;20.00;99.90
8248;DHT22;4164;49.844;8.830;2022-08-19T05:20:38;19.90;99.90
8248;DHT22;4164;49.844;8.830;2022-08-19T05:23:22;19.80;99.90
8248;DHT22;4164;49.844;8.830;2022-08-19T05:25:48;19.80;99.90
8248;DHT22;4164;49.844;8.830;2022-08-19T05:28:13;19.80;99.90
8248;DHT22;4164;49.844;8.830;2022-08-19T05:30:39;19.90;99.90
8248;DHT22;4164;49.844;8.830;2022-08-19T05:33:06;19.90;99.90
8248;DHT22;4164;49.844;8.830;2022-08-19T05:35:36;20.00;99.90
8248;DHT22;4164;49.844;8.830;2022-08-19T05:38:02;20.00;99.90
8248;DHT22;4164;49.844;8.830;2022-08-19T05:40:28;20.10;99.90
8248;DHT22;4164;49.844;8.830;2022-08-19T05:42:54;20.10;99.90
8248;DHT22;4164;49.844;8.830;2022-08-19T05:45:20;20.10;99.90
8248;DHT22;4164;49.844;8.830;2022-08-19T05:47:47;20.20;99.90
8248;DHT22;4164;49.844;8.830;2022-08-19T05:50:13;20.30;99.90
8248;DHT22;4164;49.844;8.830;2022-08-19T05:52:39;20.40;99.90
8248;DHT22;4164;49.844;8.830;2022-08-19T05:55:05;20.50;99.90
8248;DHT22;4164;49.844;8.830;2022-08-19T05:57:31;20.60;99.90
8248;DHT22;4164;49.844;8.830;2022-08-19T05:59:57;20.70;99.90
8248;DHT22;4164;49.844;8.830;2022-08-19T06:02:22;20.80;99.90
8248;DHT22;4164;49.844;8.830;2022-08-19T06:04:48;20.90;99.90
8248;DHT22;4164;49.844;8.830;2022-08-19T06:07:14;21.00;99.90
8248;DHT22;4164;49.844;8.830;2022-08-19T06:09:40;21.10;99.90
8248;DHT22;4164;49.844;8.830;2022-08-19T06:12:07;21.30;99.90
8248;DHT22;4164;49.844;8.830;2022-08-19T06:14:34;21.30;99.90
8248;DHT22;4164;49.844;8.830;2022-08-19T06:17:00;21.40;99.90
8248;DHT22;4164;49.844;8.830;2022-08-19T06:19:29;21.50;99.90
8248;DHT22;4164;49.844;8.830;2022-08-19T06:21:58;21.80;99.90
8248;DHT22;4164;49.844;8.830;2022-08-19T06:24:26;21.80;99.90
8248;DHT22;4164;49.844;8.830;2022-08-19T06:26:54;21.90;99.90
8248;DHT22;4164;49.844;8.830;2022-08-19T06:29:22;21.90;99.90
8248;DHT22;4164;49.844;8.830;2022-08-19T06:31:51;21.80;99.90
8248;DHT22;4164;49.844;8.830;2022-08-19T06:34:17;21.80;99.90
8248;DHT22;4164;49.844;8.830;2022-08-19T06:36:46;21.70;99.90
8248;DHT22;4164;49.844;8.830;2022-08-19T06:39:15;21.70;99.90
8248;DHT22;4164;49.844;8.830;2022-08-19T06:41:44;21.70;99.90
8248;DHT22;4164;49.844;8.830;2022-08-19T06:44:10;21.80;99.90
8248;DHT22;4164;49.844;8.830;2022-08-19T06:46:37;21.80;99.90
8248;DHT22;4164;49.844;8.830;2022-08-19T06:49:03;22.10;99.90
8248;DHT22;4164;49.844;8.830;2022-08-19T06:51:29;22.10;99.90
8248;DHT22;4164;49.844;8.830;2022-08-19T06:53:57;22.10;99.90
8248;DHT22;4164;49.844;8.830;2022-08-19T06:56:26;22.10;99.90
8248;DHT22;4164;49.844;8.830;2022-08-19T06:58:56;22.20;99.90
8248;DHT22;4164;49.844;8.830;2022-08-19T07:01:22;22.40;99.90
8248;DHT22;4164;49.844;8.830;2022-08-19T07:03:48;22.50;99.90
8248;DHT22;4164;49.844;8.830;2022-08-19T07:06:16;22.70;99.90
8248;DHT22;4164;49.844;8.830;2022-08-19T07:08:44;22.70;99.90
8248;DHT22;4164;49.844;8.830;2022-08-19T07:11:12;23.00;99.90
8248;DHT22;4164;49.844;8.830;2022-08-19T07:13:38;23.20;99.90
8248;DHT22;4164;49.844;8.830;2022-08-19T07:16:08;23.10;99.90
8248;DHT22;4164;49.844;8.830;2022-08-19T07:18:34;22.90;99.90
8248;DHT22;4164;49.844;8.830;2022-08-19T07:21:09;23.20;99.90
8248;DHT22;4164;49.844;8.830;2022-08-19T07:23:35;23.60;99.90
8248;DHT22;4164;49.844;8.830;2022-08-19T07:26:18;23.80;99.90
8248;DHT22;4164;49.844;8.830;2022-08-19T07:28:45;23.70;99.90
8248;DHT22;4164;49.844;8.830;2022-08-19T07:31:17;23.60;99.90
8248;DHT22;4164;49.844;8.830;2022-08-19T07:33:44;23.70;99.90
8248;DHT22;4164;49.844;8.830;2022-08-19T07:36:12;23.80;99.90
8248;DHT22;4164;49.844;8.830;2022-08-19T07:38:40;23.80;99.90
8248;DHT22;4164;49.844;8.830;2022-08-19T07:41:08;23.90;99.90
8248;DHT22;4164;49.844;8.830;2022-08-19T07:43:34;23.80;99.90
8248;DHT22;4164;49.844;8.830;2022-08-19T07:46:00;24.00;99.90
8248;DHT22;4164;49.844;8.830;2022-08-19T07:48:27;24.20;99.90
8248;DHT22;4164;49.844;8.830;2022-08-19T07:50:53;24.30;99.90
8248;DHT22;4164;49.844;8.830;2022-08-19T07:53:21;23.90;99.90
8248;DHT22;4164;49.844;8.830;2022-08-19T07:55:48;23.80;99.90
8248;DHT22;4164;49.844;8.830;2022-08-19T07:58:17;23.60;99.90
8248;DHT22;4164;49.844;8.830;2022-08-19T08:00:44;23.80;99.90
8248;DHT22;4164;49.844;8.830;2022-08-19T08:03:11;24.10;99.90
8248;DHT22;4164;49.844;8.830;2022-08-19T08:05:37;24.50;99.90
8248;DHT22;4164;49.844;8.830;2022-08-19T08:08:22;24.30;99.90
8248;DHT22;4164;49.844;8.830;2022-08-19T08:10:56;24.30;99.90
8248;DHT22;4164;49.844;8.830;2022-08-19T08:13:22;24.00;99.90
8248;DHT22;4164;49.844;8.830;2022-08-19T08:15:48;23.80;99.90
8248;DHT22;4164;49.844;8.830;2022-08-19T08:18:13;23.80;99.90
8248;DHT22;4164;49.844;8.830;2022-08-19T08:20:39;24.00;99.90
8248;DHT22;4164;49.844;8.830;2022-08-19T08:23:04;24.30;99.90
8248;DHT22;4164;49.844;8.830;2022-08-19T08:25:51;24.50;99.90
8248;DHT22;4164;49.844;8.830;2022-08-19T08:28:18;24.40;99.90
8248;DHT22;4164;49.844;8.830;2022-08-19T08:30:45;24.70;99.90
8248;DHT22;4164;49.844;8.830;2022-08-19T08:33:13;24.90;99.90
8248;DHT22;4164;49.844;8.830;2022-08-19T08:35:40;25.30;99.90
8248;DHT22;4164;49.844;8.830;2022-08-19T08:38:07;25.60;99.90
8248;DHT22;4164;49.844;8.830;2022-08-19T08:46:05;25.60;99.90
8248;DHT22;4164;49.844;8.830;2022-08-19T08:48:36;25.70;99.90
8248;DHT22;4164;49.844;8.830;2022-08-19T08:51:07;25.10;99.90
8248;DHT22;4164;49.844;8.830;2022-08-19T08:53:34;25.40;99.90
8248;DHT22;4164;49.844;8.830;2022-08-19T08:56:03;25.60;99.90
8248;DHT22;4164;49.844;8.830;2022-08-19T08:58:48;25.30;99.90
8248;DHT22;4164;49.844;8.830;2022-08-19T09:01:16;25.40;99.90
8248;DHT22;4164;49.844;8.830;2022-08-19T09:03:43;25.70;99.90
8248;DHT22;4164;49.844;8.830;2022-08-19T09:06:23;26.10;99.90
8248;DHT22;4164;49.844;8.830;2022-08-19T09:09:04;26.60;99.90
8248;DHT22;4164;49.844;8.830;2022-08-19T09:11:39;27.20;99.90
8248;DHT22;4164;49.844;8.830;2022-08-19T09:14:26;27.50;99.90
8248;DHT22;4164;49.844;8.830;2022-08-19T09:16:53;27.90;99.90
8248;DHT22;4164;49.844;8.830;2022-08-19T09:19:19;28.50;99.90
8248;DHT22;4164;49.844;8.830;2022-08-19T09:21:44;28.50;99.90
8248;DHT22;4164;49.844;8.830;2022-08-19T09:24:11;28.20;99.90
8248;DHT22;4164;49.844;8.830;2022-08-19T09:26:37;27.80;99.90
8248;DHT22;4164;49.844;8.830;2022-08-19T09:29:03;27.30;99.90
8248;DHT22;4164;49.844;8.830;2022-08-19T09:31:32;27.10;99.90
8248;DHT22;4164;49.844;8.830;2022-08-19T09:33:59;27.30;99.90
8248;DHT22;4164;49.844;8.830;2022-08-19T09:36:27;27.20;99.90
8248;DHT22;4164;49.844;8.830;2022-08-19T09:38:55;27.40;99.90
8248;DHT22;4164;49.844;8.830;2022-08-19T09:41:23;27.50;99.90
8248;DHT22;4164;49.844;8.830;2022-08-19T09:43:51;27.60;99.90
8248;DHT22;4164;49.844;8.830;2022-08-19T09:46:19;26.70;99.90
8248;DHT22;4164;49.844;8.830;2022-08-19T09:48:46;26.50;99.90
8248;DHT22;4164;49.844;8.830;2022-08-19T09:51:16;26.40;99.90
8248;DHT22;4164;49.844;8.830;2022-08-19T09:53:44;26.70;99.90
8248;DHT22;4164;49.844;8.830;2022-08-19T09:56:10;27.10;99.90
8248;DHT22;4164;49.844;8.830;2022-08-19T09:58:37;27.40;99.90
8248;DHT22;4164;49.844;8.830;2022-08-19T10:01:04;28.00;99.90
8248;DHT22;4164;49.844;8.830;2022-08-19T10:03:31;28.40;99.90
8248;DHT22;4164;49.844;8.830;2022-08-19T10:05:59;28.40;99.90
8248;DHT22;4164;49.844;8.830;2022-08-19T10:08:28;28.20;99.90
8248;DHT22;4164;49.844;8.830;2022-08-19T10:10:55;28.40;99.90
8248;DHT22;4164;49.844;8.830;2022-08-19T10:13:22;28.30;99.90
8248;DHT22;4164;49.844;8.830;2022-08-19T10:15:53;28.50;99.90
8248;DHT22;4164;49.844;8.830;2022-08-19T10:18:20;28.50;99.90
8248;DHT22;4164;49.844;8.830;2022-08-19T10:20:47;28.90;99.90
8248;DHT22;4164;49.844;8.830;2022-08-19T10:23:14;29.00;99.90
8248;DHT22;4164;49.844;8.830;2022-08-19T10:25:40;29.20;99.90
8248;DHT22;4164;49.844;8.830;2022-08-19T10:28:06;28.80;99.90
8248;DHT22;4164;49.844;8.830;2022-08-19T10:30:33;29.00;99.90
8248;DHT22;4164;49.844;8.830;2022-08-19T10:32:58;29.30;99.90
8248;DHT22;4164;49.844;8.830;2022-08-19T10:35:24;29.90;99.90
8248;DHT22;4164;49.844;8.830;2022-08-19T10:37:53;30.20;98.60
8248;DHT22;4164;49.844;8.830;2022-08-19T10:40:18;30.20;98.90
8248;DHT22;4164;49.844;8.830;2022-08-19T10:42:44;29.90;97.80
8248;DHT22;4164;49.844;8.830;2022-08-19T10:45:10;29.00;98.50
8248;DHT22;4164;49.844;8.830;2022-08-19T10:47:35;28.50;98.00
8248;DHT22;4164;49.844;8.830;2022-08-19T10:50:02;28.80;99.00
8248;DHT22;4164;49.844;8.830;2022-08-19T10:52:47;29.50;97.50
8248;DHT22;4164;49.844;8.830;2022-08-19T10:55:13;29.40;96.90
8248;DHT22;4164;49.844;8.830;2022-08-19T10:57:57;28.70;97.20
8248;DHT22;4164;49.844;8.830;2022-08-19T11:00:24;27.80;97.30
8248;DHT22;4164;49.844;8.830;2022-08-19T11:02:51;27.90;96.90
8248;DHT22;4164;49.844;8.830;2022-08-19T11:05:17;28.10;96.60
8248;DHT22;4164;49.844;8.830;2022-08-19T11:07:44;29.20;96.90
8248;DHT22;4164;49.844;8.830;2022-08-19T11:10:12;29.00;95.50
8248;DHT22;4164;49.844;8.830;2022-08-19T11:12:39;29.80;95.20
8248;DHT22;4164;49.844;8.830;2022-08-19T11:15:09;30.70;93.40
8248;DHT22;4164;49.844;8.830;2022-08-19T11:17:39;28.80;95.60
8248;DHT22;4164;49.844;8.830;2022-08-19T11:20:12;28.10;96.60
8248;DHT22;4164;49.844;8.830;2022-08-19T11:22:38;29.60;95.80
8248;DHT22;4164;49.844;8.830;2022-08-19T11:25:04;32.40;88.90
8248;DHT22;4164;49.844;8.830;2022-08-19T11:27:30;33.90;79.50
8248;DHT22;4164;49.844;8.830;2022-08-19T11:29:59;33.20;75.30
8248;DHT22;4164;49.844;8.830;2022-08-19T11:32:25;33.00;75.40
8248;DHT22;4164;49.844;8.830;2022-08-19T11:34:51;31.40;80.40
8248;DHT22;4164;49.844;8.830;2022-08-19T11:37:17;32.20;78.10
8248;DHT22;4164;49.844;8.830;2022-08-19T11:39:42;30.70;79.90
8248;DHT22;4164;49.844;8.830;2022-08-19T11:42:08;28.60;86.10
8248;DHT22;4164;49.844;8.830;2022-08-19T11:44:52;28.20;90.20
8248;DHT22;4164;49.844;8.830;2022-08-19T11:47:19;30.60;84.60
8248;DHT22;4164;49.844;8.830;2022-08-19T11:49:45;31.40;79.70
8248;DHT22;4164;49.844;8.830;2022-08-19T11:52:11;31.30;79.60
8248;DHT22;4164;49.844;8.830;2022-08-19T11:54:37;31.60;79.30
8248;DHT22;4164;49.844;8.830;2022-08-19T11:57:03;32.60;76.70
8248;DHT22;4164;49.844;8.830;2022-08-19T11:59:29;32.00;77.30
8248;DHT22;4164;49.844;8.830;2022-08-19T12:01:55;30.90;80.10
8248;DHT22;4164;49.844;8.830;2022-08-19T12:04:21;29.60;82.30
8248;DHT22;4164;49.844;8.830;2022-08-19T12:06:47;28.80;85.10
8248;DHT22;4164;49.844;8.830;2022-08-19T12:09:13;28.90;88.10
8248;DHT22;4164;49.844;8.830;2022-08-19T12:11:40;32.20;80.00
8248;DHT22;4164;49.844;8.830;2022-08-19T12:14:09;35.70;68.70
8248;DHT22;4164;49.844;8.830;2022-08-19T12:16:35;36.40;59.30
8248;DHT22;4164;49.844;8.830;2022-08-19T12:19:03;34.80;59.10
8248;DHT22;4164;49.844;8.830;2022-08-19T12:21:30;32.30;63.10
8248;DHT22;4164;49.844;8.830;2022-08-19T12:23:58;30.20;70.00
8248;DHT22;4164;49.844;8.830;2022-08-19T12:26:25;28.90;77.20
8248;DHT22;4164;49.844;8.830;2022-08-19T12:28:52;28.60;80.60
8248;DHT22;4164;49.844;8.830;2022-08-19T12:31:17;28.30;80.10
8248;DHT22;4164;49.844;8.830;2022-08-19T12:33:45;27.90;81.80
8248;DHT22;4164;49.844;8.830;2022-08-19T12:36:12;28.30;83.30
8248;DHT22;4164;49.844;8.830;2022-08-19T12:38:39;28.60;83.00
8248;DHT22;4164;49.844;8.830;2022-08-19T12:41:05;28.30;83.20
8248;DHT22;4164;49.844;8.830;2022-08-19T12:43:33;28.30;82.80
8248;DHT22;4164;49.844;8.830;2022-08-19T12:46:00;28.50;83.80
8248;DHT22;4164;49.844;8.830;2022-08-19T12:48:25;28.40;84.60
8248;DHT22;4164;49.844;8.830;2022-08-19T12:50:51;28.50;85.30
8248;DHT22;4164;49.844;8.830;2022-08-19T12:53:19;29.60;85.60
8248;DHT22;4164;49.844;8.830;2022-08-19T12:55:45;32.70;76.50
8248;DHT22;4164;49.844;8.830;2022-08-19T12:58:11;33.80;66.20
8248;DHT22;4164;49.844;8.830;2022-08-19T13:00:38;35.00;62.50
8248;DHT22;4164;49.844;8.830;2022-08-19T13:03:04;34.80;60.70
8248;DHT22;4164;49.844;8.830;2022-08-19T13:05:31;36.50;58.30
8248;DHT22;4164;49.844;8.830;2022-08-19T13:07:59;34.60;58.90
8248;DHT22;4164;49.844;8.830;2022-08-19T13:10:27;32.60;61.20
8248;DHT22;4164;49.844;8.830;2022-08-19T13:12:53;31.10;65.60
8248;DHT22;4164;49.844;8.830;2022-08-19T13:15:20;30.10;70.10
8248;DHT22;4164;49.844;8.830;2022-08-19T13:17:48;29.40;72.10
8248;DHT22;4164;49.844;8.830;2022-08-19T13:20:15;29.40;73.90
8248;DHT22;4164;49.844;8.830;2022-08-19T13:22:41;28.60;75.30
8248;DHT22;4164;49.844;8.830;2022-08-19T13:25:08;28.10;78.40
8248;DHT22;4164;49.844;8.830;2022-08-19T13:27:34;27.90;79.80
8248;DHT22;4164;49.844;8.830;2022-08-19T13:30:00;27.80;81.10
8248;DHT22;4164;49.844;8.830;2022-08-19T13:32:45;27.70;82.50
8248;DHT22;4164;49.844;8.830;2022-08-19T13:35:29;27.60;81.80
8248;DHT22;4164;49.844;8.830;2022-08-19T13:37:54;27.90;84.20
8248;DHT22;4164;49.844;8.830;2022-08-19T13:40:22;28.20;83.10
8248;DHT22;4164;49.844;8.830;2022-08-19T13:42:51;29.50;81.80
8248;DHT22;4164;49.844;8.830;2022-08-19T13:45:20;30.70;80.20
8248;DHT22;4164;49.844;8.830;2022-08-19T13:47:47;31.70;72.00
8248;DHT22;4164;49.844;8.830;2022-08-19T13:50:14;32.10;69.60
8248;DHT22;4164;49.844;8.830;2022-08-19T13:52:41;33.90;67.60
8248;DHT22;4164;49.844;8.830;2022-08-19T13:55:08;34.40;64.00
8248;DHT22;4164;49.844;8.830;2022-08-19T13:57:34;35.10;61.80
8248;DHT22;4164;49.844;8.830;2022-08-19T14:00:00;36.50;59.40
8248;DHT22;4164;49.844;8.830;2022-08-19T14:02:26;37.40;56.30
8248;DHT22;4164;49.844;8.830;2022-08-19T14:04:52;36.80;54.30
8248;DHT22;4164;49.844;8.830;2022-08-19T14:07:18;35.40;53.90
8248;DHT22;4164;49.844;8.830;2022-08-19T14:09:43;34.20;56.60
8248;DHT22;4164;49.844;8.830;2022-08-19T14:12:09;35.10;58.10
8248;DHT22;4164;49.844;8.830;2022-08-19T14:14:38;36.30;53.50
8248;DHT22;4164;49.844;8.830;2022-08-19T14:17:07;36.00;53.50
8248;DHT22;4164;49.844;8.830;2022-08-19T14:19:35;33.70;54.50
8248;DHT22;4164;49.844;8.830;2022-08-19T14:22:00;34.00;55.10
8248;DHT22;4164;49.844;8.830;2022-08-19T14:24:26;32.90;54.00
8248;DHT22;4164;49.844;8.830;2022-08-19T14:26:52;31.80;56.10
8248;DHT22;4164;49.844;8.830;2022-08-19T14:29:18;32.20;57.20
8248;DHT22;4164;49.844;8.830;2022-08-19T14:31:44;32.20;56.40
8248;DHT22;4164;49.844;8.830;2022-08-19T14:34:10;32.60;56.50
8248;DHT22;4164;49.844;8.830;2022-08-19T14:36:36;32.70;55.60
8248;DHT22;4164;49.844;8.830;2022-08-19T14:39:03;32.50;56.40
8248;DHT22;4164;49.844;8.830;2022-08-19T14:41:29;32.10;55.70
8248;DHT22;4164;49.844;8.830;2022-08-19T14:43:56;31.30;56.70
8248;DHT22;4164;49.844;8.830;2022-08-19T14:46:24;31.10;56.80
8248;DHT22;4164;49.844;8.830;2022-08-19T14:48:51;31.00;57.40
8248;DHT22;4164;49.844;8.830;2022-08-19T14:51:17;30.50;58.60
8248;DHT22;4164;49.844;8.830;2022-08-19T14:53:44;30.00;57.60
8248;DHT22;4164;49.844;8.830;2022-08-19T14:56:13;29.90;58.20
8248;DHT22;4164;49.844;8.830;2022-08-19T14:58:40;29.90;58.80
8248;DHT22;4164;49.844;8.830;2022-08-19T15:01:06;29.60;59.10
8248;DHT22;4164;49.844;8.830;2022-08-19T15:03:33;29.80;60.50
8248;DHT22;4164;49.844;8.830;2022-08-19T15:06:03;30.10;60.00
8248;DHT22;4164;49.844;8.830;2022-08-19T15:08:31;30.20;58.60
8248;DHT22;4164;49.844;8.830;2022-08-19T15:10:58;30.10;59.00
8248;DHT22;4164;49.844;8.830;2022-08-19T15:13:25;29.90;58.80
8248;DHT22;4164;49.844;8.830;2022-08-19T15:15:51;29.90;59.50
8248;DHT22;4164;49.844;8.830;2022-08-19T15:18:18;29.80;59.30
8248;DHT22;4164;49.844;8.830;2022-08-19T15:20:46;29.80;62.30
8248;DHT22;4164;49.844;8.830;2022-08-19T15:23:13;30.00;60.00
8248;DHT22;4164;49.844;8.830;2022-08-19T15:25:40;30.00;60.30
8248;DHT22;4164;49.844;8.830;2022-08-19T15:28:07;30.10;61.60
8248;DHT22;4164;49.844;8.830;2022-08-19T15:30:32;29.70;60.00
8248;DHT22;4164;49.844;8.830;2022-08-19T15:32:59;29.40;58.30
8248;DHT22;4164;49.844;8.830;2022-08-19T15:35:24;29.10;57.20
8248;DHT22;4164;49.844;8.830;2022-08-19T15:37:51;28.70;57.70
8248;DHT22;4164;49.844;8.830;2022-08-19T15:40:18;28.70;58.80
8248;DHT22;4164;49.844;8.830;2022-08-19T15:42:45;28.60;57.60
8248;DHT22;4164;49.844;8.830;2022-08-19T15:45:12;28.50;57.10
8248;DHT22;4164;49.844;8.830;2022-08-19T15:47:39;28.40;56.70
8248;DHT22;4164;49.844;8.830;2022-08-19T15:50:13;28.50;57.10
8248;DHT22;4164;49.844;8.830;2022-08-19T15:55:15;28.50;57.10
8248;DHT22;4164;49.844;8.830;2022-08-19T15:57:40;28.20;56.60
8248;DHT22;4164;49.844;8.830;2022-08-19T16:00:25;28.00;56.00
8248;DHT22;4164;49.844;8.830;2022-08-19T16:03:13;28.00;56.30
8248;DHT22;4164;49.844;8.830;2022-08-19T16:05:58;28.00;55.20
8248;DHT22;4164;49.844;8.830;2022-08-19T16:08:43;28.00;55.00
8248;DHT22;4164;49.844;8.830;2022-08-19T16:11:13;27.90;53.90
8248;DHT22;4164;49.844;8.830;2022-08-19T16:13:39;27.90;54.30
8248;DHT22;4164;49.844;8.830;2022-08-19T16:16:05;27.90;54.60